Time;durP1;ratioP1;P1;durP2;ratioP2;P2;SDS_P1;SDS_P2;PMS_P1;PMS_P2;Temp;Humidity;BMP_temperature;BMP_pressure;BME280_temperature;BME280_humidity;BME280_pressure;Samples;Min_cycle;Max_cycle;Signal;HPM_P1;HPM_P2
2022/01/08 00:04:25;;;;;;;3.63;3.33;;;5.30;44.00;;;;;;10417615;28;20224;-67
2022/01/08 00:09:30;;;;;;;3.57;3.27;;;5.30;44.00;;;;;;10424364;28;20233;-66
2022/01/08 00:14:33;;;;;;;3.53;3.23;;;5.30;44.20;;;;;;10426048;28;20957;-67
2022/01/08 00:19:37;;;;;;;3.27;3.07;;;5.30;44.10;;;;;;10418099;28;20241;-66
2022/01/08 00:24:41;;;;;;;3.30;3.10;;;5.30;44.00;;;;;;10421026;28;20233;-67
2022/01/08 00:29:45;;;;;;;3.70;3.40;;;5.30;44.00;;;;;;10421100;28;20229;-67
2022/01/08 00:34:49;;;;;;;3.57;3.30;;;5.30;44.00;;;;;;10421654;28;20235;-67
2022/01/08 00:39:53;;;;;;;3.67;3.37;;;5.30;44.10;;;;;;10424473;28;20233;-67
2022/01/08 00:44:57;;;;;;;4.50;4.10;;;5.30;44.00;;;;;;10429272;28;20674;-67
2022/01/08 00:50:00;;;;;;;4.00;3.70;;;5.30;44.00;;;;;;10429988;28;20236;-67
2022/01/08 00:55:05;;;;;;;4.07;3.77;;;5.30;44.00;;;;;;10428856;28;20223;-67
2022/01/08 01:00:11;;;;;;;4.10;3.80;;;5.40;44.00;;;;;;10428595;28;20544;-67
2022/01/08 01:05:14;;;;;;;3.53;3.30;;;5.40;43.90;;;;;;10427990;28;20220;-67
2022/01/08 01:10:19;;;;;;;3.97;3.67;;;5.50;43.80;;;;;;10426099;28;20229;-67
2022/01/08 01:15:22;;;;;;;3.67;3.47;;;5.50;43.60;;;;;;10429238;28;20256;-67
2022/01/08 01:20:26;;;;;;;4.00;3.70;;;5.50;43.50;;;;;;10427093;28;20721;-67
2022/01/08 01:25:35;;;;;;;4.20;3.80;;;5.50;43.40;;;;;;10429258;28;20242;-67
2022/01/08 01:41:32;;;;;;;3.77;3.47;;;5.50;43.10;;;;;;10370282;28;20677;-67
2022/01/08 01:51:59;;;;;;;3.53;3.23;;;5.30;43.00;;;;;;10427889;28;20237;-67
2022/01/08 01:57:05;;;;;;;3.67;3.40;;;5.20;42.90;;;;;;10422967;28;20675;-68
2022/01/08 02:02:09;;;;;;;3.60;3.30;;;5.20;43.00;;;;;;10425557;28;20233;-67
2022/01/08 02:07:12;;;;;;;3.30;3.00;;;5.10;43.10;;;;;;10423038;28;20230;-68
2022/01/08 02:12:20;;;;;;;2.87;2.63;;;5.10;43.20;;;;;;10425210;28;20229;-68
2022/01/08 02:17:23;;;;;;;2.93;2.73;;;5.00;43.30;;;;;;10422556;28;20222;-67
2022/01/08 02:22:28;;;;;;;3.00;2.80;;;5.00;43.40;;;;;;10418723;28;20764;-67
2022/01/08 02:27:31;;;;;;;2.93;2.70;;;5.00;43.40;;;;;;10421582;28;20222;-68
2022/01/08 02:32:35;;;;;;;3.07;2.83;;;5.00;43.20;;;;;;10427896;28;20225;-67
2022/01/08 02:37:40;;;;;;;2.80;2.60;;;5.00;43.20;;;;;;10426516;28;20228;-67
2022/01/08 02:42:51;;;;;;;2.83;2.63;;;5.00;43.10;;;;;;10426332;28;20232;-67
2022/01/08 02:47:55;;;;;;;2.90;2.70;;;4.90;43.10;;;;;;10425752;28;20221;-67
2022/01/08 02:53:00;;;;;;;2.83;2.63;;;4.90;43.10;;;;;;10427760;28;20217;-67
2022/01/08 02:58:03;;;;;;;2.80;2.60;;;4.80;43.20;;;;;;10424470;28;20232;-67
2022/01/08 03:03:06;;;;;;;2.87;2.67;;;4.80;43.10;;;;;;10422587;28;20239;-67
2022/01/08 03:08:11;;;;;;;2.67;2.47;;;4.80;43.00;;;;;;10425872;28;20651;-68
2022/01/08 03:13:14;;;;;;;2.63;2.43;;;4.80;42.90;;;;;;10423738;28;20241;-67
2022/01/08 03:18:17;;;;;;;3.07;2.33;;;4.80;42.90;;;;;;10424751;28;20694;-68
2022/01/08 03:23:24;;;;;;;2.53;2.37;;;4.80;42.70;;;;;;10426731;28;20222;-67
2022/01/08 03:28:27;;;;;;;3.80;2.50;;;4.90;42.80;;;;;;10424815;28;20236;-67
2022/01/08 03:33:30;;;;;;;2.77;2.57;;;4.90;42.60;;;;;;10422445;28;20233;-68
2022/01/08 03:38:35;;;;;;;2.60;2.40;;;4.90;42.60;;;;;;10425477;28;20267;-67
2022/01/08 03:43:38;;;;;;;2.77;2.57;;;4.90;42.30;;;;;;10420845;28;20233;-67
2022/01/08 03:48:46;;;;;;;2.90;2.70;;;4.80;42.20;;;;;;10421615;28;20217;-67
2022/01/08 03:53:51;;;;;;;2.70;2.50;;;4.80;42.30;;;;;;10420871;28;20236;-67
2022/01/08 03:58:54;;;;;;;3.97;3.20;;;4.70;42.40;;;;;;10424476;28;20236;-67
2022/01/08 04:03:57;;;;;;;3.23;2.90;;;4.70;42.40;;;;;;10420547;28;20225;-68
2022/01/08 04:09:02;;;;;;;2.73;2.53;;;4.70;42.10;;;;;;10419656;28;20225;-67
2022/01/08 04:14:06;;;;;;;2.63;2.43;;;4.60;42.10;;;;;;10422914;28;20250;-67
2022/01/08 04:19:10;;;;;;;2.23;2.13;;;4.50;42.30;;;;;;10420446;28;20237;-67
2022/01/08 04:24:14;;;;;;;2.23;2.07;;;4.40;42.20;;;;;;10419741;28;20235;-67
2022/01/08 04:29:17;;;;;;;2.33;2.23;;;4.40;42.20;;;;;;10424055;28;20224;-67
2022/01/08 04:34:21;;;;;;;2.60;2.40;;;4.30;42.20;;;;;;10422710;28;20224;-67
2022/01/08 04:39:26;;;;;;;2.13;2.03;;;4.20;42.40;;;;;;10418948;28;20236;-67
2022/01/08 04:44:29;;;;;;;2.67;2.47;;;4.20;42.50;;;;;;10422031;28;20927;-67
2022/01/08 04:49:33;;;;;;;2.57;2.37;;;4.20;42.60;;;;;;10417552;28;20229;-67
2022/01/08 04:54:37;;;;;;;2.87;2.37;;;4.20;42.70;;;;;;10422177;28;20230;-67
2022/01/08 04:59:41;;;;;;;3.30;3.00;;;4.20;42.80;;;;;;10421795;28;20284;-67
2022/01/08 05:04:44;;;;;;;2.43;2.23;;;4.20;42.90;;;;;;10417929;28;20232;-67
2022/01/08 05:09:50;;;;;;;3.00;2.40;;;4.20;42.90;;;;;;10419810;28;20236;-67
2022/01/08 05:14:54;;;;;;;2.70;2.50;;;4.20;42.90;;;;;;10419565;28;20229;-67
2022/01/08 05:20:00;;;;;;;2.50;2.30;;;4.20;42.80;;;;;;10418156;28;20239;-67
2022/01/08 05:25:05;;;;;;;2.30;2.13;;;4.20;43.10;;;;;;10424446;28;20241;-67
2022/01/08 05:30:10;;;;;;;2.07;1.90;;;4.20;43.70;;;;;;10417945;28;20229;-67
2022/01/08 05:35:13;;;;;;;1.97;1.87;;;4.10;43.70;;;;;;10418302;28;20229;-67
2022/01/08 05:40:18;;;;;;;2.43;2.23;;;4.20;43.80;;;;;;10427447;28;20229;-67
2022/01/08 05:45:21;;;;;;;2.37;2.23;;;4.20;44.00;;;;;;10429379;28;20228;-67
2022/01/08 05:50:24;;;;;;;2.50;2.13;;;4.10;43.80;;;;;;10426208;28;20236;-67
2022/01/08 05:55:29;;;;;;;2.00;1.80;;;4.10;44.00;;;;;;10430179;28;20217;-67
2022/01/08 06:00:32;;;;;;;2.13;1.93;;;4.10;44.30;;;;;;10423809;28;20239;-67
2022/01/08 06:05:35;;;;;;;2.10;2.00;;;4.10;44.20;;;;;;10426353;28;20256;-67
2022/01/08 06:10:40;;;;;;;2.13;1.93;;;4.10;44.40;;;;;;10422008;28;20236;-67
2022/01/08 06:15:43;;;;;;;2.47;2.33;;;4.20;44.70;;;;;;10427740;28;20224;-67
2022/01/08 06:20:47;;;;;;;1.93;1.80;;;4.20;44.50;;;;;;10425183;28;20225;-67
2022/01/08 06:25:51;;;;;;;1.70;1.60;;;4.30;44.50;;;;;;10425634;28;20232;-67
2022/01/08 06:30:54;;;;;;;1.67;1.57;;;4.40;44.80;;;;;;10422651;28;20233;-68
2022/01/08 06:35:58;;;;;;;1.90;1.80;;;4.40;44.60;;;;;;10423669;28;20221;-66
2022/01/08 06:41:02;;;;;;;1.50;1.40;;;4.40;44.70;;;;;;10421538;28;20256;-66
2022/01/08 06:46:06;;;;;;;1.23;1.23;;;4.40;45.00;;;;;;10418083;28;20220;-67
2022/01/08 06:51:09;;;;;;;1.27;1.27;;;4.40;45.00;;;;;;10422181;28;20221;-66
2022/01/08 06:56:13;;;;;;;1.13;1.07;;;4.50;45.20;;;;;;10416983;28;20233;-66
2022/01/08 07:01:17;;;;;;;1.33;1.23;;;4.40;45.30;;;;;;10421971;28;20237;-66
2022/01/08 07:06:20;;;;;;;1.43;1.33;;;4.50;45.20;;;;;;10421556;28;20225;-66
2022/01/08 07:11:29;;;;;;;1.10;1.10;;;4.60;45.40;;;;;;10419065;28;20747;-66
2022/01/08 07:16:33;;;;;;;1.03;1.00;;;4.50;45.40;;;;;;10423533;28;20229;-66
2022/01/08 07:21:36;;;;;;;1.50;1.40;;;4.50;45.20;;;;;;10420109;28;20241;-66
2022/01/08 07:26:40;;;;;;;2.27;2.07;;;4.60;45.20;;;;;;10420139;28;20221;-66
2022/01/08 07:31:44;;;;;;;2.73;2.00;;;4.60;45.30;;;;;;10419917;28;20224;-66
2022/01/08 07:36:47;;;;;;;3.93;3.27;;;4.60;45.20;;;;;;10423135;28;20228;-66
2022/01/08 07:41:51;;;;;;;6.23;4.80;;;4.70;45.10;;;;;;10419358;28;20222;-66
2022/01/08 07:46:56;;;;;;;2.60;2.37;;;4.70;45.10;;;;;;10424170;28;20222;-67
2022/01/08 07:51:59;;;;;;;1.93;1.80;;;4.70;44.80;;;;;;10422384;28;20229;-67
2022/01/08 07:57:04;;;;;;;2.20;2.00;;;4.80;45.00;;;;;;10422084;28;20221;-70
2022/01/08 08:02:08;;;;;;;1.60;1.50;;;4.80;45.00;;;;;;10418645;28;20346;-70
2022/01/08 08:07:11;;;;;;;1.80;1.60;;;4.80;44.90;;;;;;10419576;28;20237;-70
2022/01/08 08:12:16;;;;;;;2.77;2.17;;;4.80;45.00;;;;;;10422759;28;20225;-70
2022/01/08 08:17:19;;;;;;;1.37;1.27;;;4.90;45.50;;;;;;10421116;28;20224;-70
2022/01/08 08:22:22;;;;;;;1.87;1.60;;;4.90;46.30;;;;;;10422411;28;20847;-70
2022/01/08 08:27:27;;;;;;;1.27;1.17;;;5.00;45.90;;;;;;10422347;28;20247;-70
2022/01/08 08:32:30;;;;;;;1.40;1.30;;;5.00;46.00;;;;;;10420322;28;20701;-70
2022/01/08 08:37:34;;;;;;;1.43;1.30;;;5.10;45.90;;;;;;10422169;28;20277;-70
2022/01/08 08:42:45;;;;;;;2.23;1.40;;;5.20;45.90;;;;;;10419170;28;20727;-70
2022/01/08 08:47:49;;;;;;;1.37;1.27;;;5.30;46.00;;;;;;10425920;28;20228;-69
2022/01/08 08:52:54;;;;;;;1.10;1.00;;;5.30;45.80;;;;;;10420091;28;20233;-70
2022/01/08 08:57:59;;;;;;;1.40;1.30;;;5.40;45.90;;;;;;10420281;28;20232;-69
2022/01/08 09:03:02;;;;;;;3.93;3.03;;;5.40;46.00;;;;;;10421215;28;20225;-69
2022/01/08 09:08:05;;;;;;;2.70;2.50;;;5.40;45.80;;;;;;10418783;28;20308;-69
2022/01/08 09:13:10;;;;;;;2.10;2.00;;;5.50;45.90;;;;;;10427686;28;20697;-69
2022/01/08 09:18:13;;;;;;;1.70;1.60;;;5.50;45.90;;;;;;10422358;28;20245;-70
2022/01/08 09:23:17;;;;;;;2.07;1.83;;;5.50;45.60;;;;;;10428369;28;20800;-70
2022/01/08 09:28:21;;;;;;;1.83;1.73;;;5.50;45.70;;;;;;10423793;28;21175;-70
2022/01/08 09:33:25;;;;;;;5.13;4.63;;;5.50;45.90;;;;;;10423029;28;20225;-70
2022/01/08 09:38:29;;;;;;;2.60;2.40;;;5.50;45.80;;;;;;10431285;28;20229;-70
2022/01/08 09:43:35;;;;;;;4.07;3.67;;;5.40;45.60;;;;;;10426920;28;20241;-70
2022/01/08 09:48:38;;;;;;;1.87;1.77;;;5.40;45.70;;;;;;10429426;28;20229;-70
2022/01/08 09:53:43;;;;;;;3.00;1.83;;;5.30;45.70;;;;;;10426760;28;20283;-71
2022/01/08 09:58:47;;;;;;;3.03;2.70;;;5.30;45.60;;;;;;10425871;28;20231;-71
2022/01/08 10:03:50;;;;;;;2.60;1.60;;;5.30;45.60;;;;;;10426957;28;20931;-71
2022/01/08 10:08:54;;;;;;;1.50;1.40;;;5.30;45.80;;;;;;10426222;28;20229;-71
2022/01/08 10:14:04;;;;;;;2.20;1.97;;;5.30;45.40;;;;;;10426250;28;20259;-71
2022/01/08 10:19:18;;;;;;;3.40;3.10;;;5.30;45.50;;;;;;10420885;28;20221;-70
2022/01/08 10:24:24;;;;;;;1.17;1.17;;;5.30;45.70;;;;;;10423902;28;20241;-71
2022/01/08 10:29:28;;;;;;;1.40;1.30;;;5.30;45.30;;;;;;10425447;28;20234;-71
2022/01/08 10:34:31;;;;;;;1.10;1.00;;;5.30;45.40;;;;;;10423411;28;20225;-71
2022/01/08 10:39:37;;;;;;;1.40;1.30;;;5.30;45.20;;;;;;10428689;28;20237;-71
2022/01/08 10:44:43;;;;;;;1.17;1.07;;;5.20;45.20;;;;;;10421668;28;20230;-75
2022/01/08 10:49:48;;;;;;;1.10;1.10;;;5.20;45.30;;;;;;10425839;28;20283;-73
2022/01/08 10:54:57;;;;;;;1.57;1.47;;;5.10;45.40;;;;;;10429830;28;20708;-74
2022/01/08 11:00:01;;;;;;;1.53;1.43;;;5.10;45.90;;;;;;10426037;28;20236;-73
2022/01/08 11:05:08;;;;;;;1.60;1.50;;;5.10;45.70;;;;;;10419418;28;20225;-72
2022/01/08 11:10:16;;;;;;;2.00;1.77;;;5.10;45.70;;;;;;10424374;28;20250;-72
2022/01/08 11:15:36;;;;;;;1.77;1.40;;;5.10;45.60;;;;;;10422180;28;20599;-73
2022/01/08 11:20:39;;;;;;;2.17;2.00;;;5.10;45.40;;;;;;10424451;28;20232;-73
2022/01/08 11:25:45;;;;;;;2.03;1.87;;;5.10;45.20;;;;;;10424146;28;20247;-73
2022/01/08 11:30:52;;;;;;;2.47;2.27;;;5.20;45.20;;;;;;10423003;28;20241;-71
2022/01/08 11:35:57;;;;;;;2.27;2.13;;;5.20;45.20;;;;;;10417332;28;20227;-70
2022/01/08 11:41:01;;;;;;;2.70;2.50;;;5.30;45.20;;;;;;10422067;28;20229;-70
2022/01/08 11:46:08;;;;;;;2.63;2.43;;;5.20;45.00;;;;;;10420455;28;20232;-71
2022/01/08 11:51:17;;;;;;;3.33;3.03;;;5.30;45.00;;;;;;10420756;28;20607;-70
2022/01/08 11:56:25;;;;;;;3.43;3.13;;;5.30;44.80;;;;;;10425179;28;20217;-70
2022/01/08 12:01:30;;;;;;;2.80;2.60;;;5.30;44.70;;;;;;10427760;28;20237;-70
2022/01/08 12:06:39;;;;;;;3.37;3.07;;;5.40;44.70;;;;;;10425470;28;20929;-72
2022/01/08 12:12:00;;;;;;;3.10;2.90;;;5.40;44.70;;;;;;10424529;28;20231;-72
2022/01/08 12:17:15;;;;;;;2.87;2.67;;;5.40;44.40;;;;;;10418775;28;20245;-72
2022/01/08 12:22:32;;;;;;;3.10;2.80;;;5.50;44.30;;;;;;10424860;28;20607;-72
2022/01/08 12:27:43;;;;;;;2.97;2.70;;;5.40;44.00;;;;;;10423796;28;20228;-72
2022/01/08 12:32:51;;;;;;;3.47;3.20;;;5.40;44.40;;;;;;10431908;28;20715;-72
2022/01/08 12:37:56;;;;;;;2.93;2.73;;;5.50;44.60;;;;;;10425594;28;20217;-72
2022/01/08 12:42:59;;;;;;;3.20;2.90;;;5.50;44.70;;;;;;10420596;28;20723;-72
2022/01/08 12:48:11;;;;;;;3.40;3.10;;;5.60;44.60;;;;;;10432094;28;20235;-71
2022/01/08 12:53:22;;;;;;;3.60;3.30;;;5.60;44.80;;;;;;10434484;28;20241;-73
2022/01/08 12:58:27;;;;;;;3.63;3.33;;;5.80;45.00;;;;;;10430569;28;20609;-73
2022/01/08 13:03:34;;;;;;;4.33;4.03;;;5.90;44.60;;;;;;10425848;28;20739;-72
2022/01/08 13:08:38;;;;;;;4.67;4.30;;;6.00;44.50;;;;;;10424032;28;20229;-72
2022/01/08 13:13:43;;;;;;;4.63;4.23;;;6.00;44.30;;;;;;10421015;28;20333;-72
2022/01/08 13:18:54;;;;;;;4.43;4.03;;;6.10;44.40;;;;;;10420268;28;20240;-71
2022/01/08 13:23:59;;;;;;;4.13;3.73;;;6.10;44.10;;;;;;10424713;28;20594;-72
2022/01/08 13:29:16;;;;;;;3.43;3.10;;;6.20;44.00;;;;;;10423664;28;20799;-71
2022/01/08 13:34:21;;;;;;;4.37;2.83;;;6.20;43.20;;;;;;10422118;28;20740;-72
2022/01/08 13:39:30;;;;;;;2.60;2.40;;;6.20;43.20;;;;;;10421585;28;20229;-74
2022/01/08 13:44:33;;;;;;;3.47;2.20;;;6.20;42.80;;;;;;10424526;28;20618;-71
2022/01/08 13:49:39;;;;;;;2.23;2.03;;;6.20;42.50;;;;;;10422377;28;20251;-71
2022/01/08 13:54:42;;;;;;;3.40;1.80;;;6.20;42.60;;;;;;10417258;28;20227;-71
2022/01/08 13:59:46;;;;;;;2.20;1.97;;;6.20;42.40;;;;;;10427627;28;20237;-71
2022/01/08 14:04:53;;;;;;;3.23;1.70;;;6.30;41.90;;;;;;10427957;28;20229;-71
2022/01/08 14:09:58;;;;;;;2.00;1.80;;;6.30;41.50;;;;;;10426885;28;20610;-71
2022/01/08 14:15:04;;;;;;;1.93;1.50;;;6.30;41.60;;;;;;10429794;28;20223;-71
2022/01/08 14:20:09;;;;;;;2.90;1.80;;;6.30;41.10;;;;;;10423592;28;20235;-71
2022/01/08 14:25:19;;;;;;;1.93;1.57;;;6.20;40.70;;;;;;10427677;28;20229;-71
2022/01/08 14:30:23;;;;;;;2.23;1.80;;;6.20;40.40;;;;;;10424719;28;20244;-71
2022/01/08 14:35:29;;;;;;;1.70;1.53;;;6.20;41.40;;;;;;10422552;28;20229;-70
2022/01/08 14:40:35;;;;;;;4.47;2.07;;;6.10;40.50;;;;;;10424622;28;20221;-71
2022/01/08 14:45:45;;;;;;;2.10;1.70;;;6.10;41.00;;;;;;10423818;28;20225;-71
2022/01/08 14:50:50;;;;;;;2.07;1.63;;;6.10;40.90;;;;;;10423187;28;20235;-70
2022/01/08 14:55:54;;;;;;;2.70;2.20;;;6.00;40.60;;;;;;10422147;28;20623;-70
2022/01/08 15:00:57;;;;;;;4.33;3.57;;;6.00;40.70;;;;;;10427203;28;20229;-71
2022/01/08 15:06:02;;;;;;;2.93;2.50;;;5.90;40.80;;;;;;10420515;28;20236;-70
2022/01/08 15:11:05;;;;;;;3.83;2.40;;;5.90;40.60;;;;;;10414236;28;20237;-70
2022/01/08 15:16:09;;;;;;;2.23;1.93;;;5.80;40.70;;;;;;10417653;28;20217;-70
2022/01/08 15:21:14;;;;;;;2.33;2.13;;;5.80;40.60;;;;;;10419993;28;20232;-70
2022/01/08 15:26:17;;;;;;;5.20;3.80;;;5.80;40.50;;;;;;10424301;28;20229;-70
2022/01/08 15:31:21;;;;;;;19.73;11.20;;;5.80;40.70;;;;;;10422118;28;20241;-70
2022/01/08 15:36:25;;;;;;;15.60;10.27;;;5.80;40.60;;;;;;10425315;28;20229;-70
2022/01/08 15:41:28;;;;;;;12.67;8.23;;;5.80;40.80;;;;;;10423357;28;20235;-69
2022/01/08 15:46:32;;;;;;;6.70;5.13;;;5.80;41.10;;;;;;10414579;28;20225;-70
2022/01/08 15:51:37;;;;;;;8.43;4.40;;;5.90;41.10;;;;;;10416394;28;20605;-70
2022/01/08 15:56:42;;;;;;;5.87;4.47;;;5.90;40.80;;;;;;10414427;28;20241;-70
2022/01/08 16:01:45;;;;;;;5.70;4.13;;;5.90;40.90;;;;;;10417932;28;20237;-70
2022/01/08 16:06:51;;;;;;;6.33;5.07;;;6.00;41.00;;;;;;10416282;28;20229;-69
2022/01/08 16:11:54;;;;;;;6.50;5.87;;;5.90;40.70;;;;;;10421449;28;20232;-69
2022/01/08 16:16:57;;;;;;;7.63;5.70;;;5.90;40.80;;;;;;10415075;28;20225;-69
2022/01/08 16:22:02;;;;;;;7.17;5.93;;;5.90;40.50;;;;;;10413237;28;20234;-69
2022/01/08 16:27:06;;;;;;;5.50;4.97;;;5.80;40.40;;;;;;10420009;28;20600;-68
2022/01/08 16:32:10;;;;;;;5.23;4.43;;;5.80;40.60;;;;;;10424536;28;20228;-69
2022/01/08 16:37:14;;;;;;;6.10;5.50;;;5.80;40.70;;;;;;10421904;28;20231;-69
2022/01/08 16:42:17;;;;;;;4.20;3.80;;;5.80;40.50;;;;;;10419845;28;20236;-69
2022/01/08 16:47:21;;;;;;;5.03;4.37;;;5.70;40.40;;;;;;10417230;28;20379;-69
2022/01/08 16:52:25;;;;;;;4.30;3.90;;;5.70;40.50;;;;;;10430225;28;20279;-71
2022/01/08 16:57:29;;;;;;;4.37;3.97;;;5.60;40.30;;;;;;10429877;28;20224;-71
2022/01/08 17:02:32;;;;;;;4.50;4.10;;;5.60;40.30;;;;;;10424473;28;20221;-72
2022/01/08 17:07:38;;;;;;;4.50;4.10;;;5.50;40.20;;;;;;10427644;28;20237;-71
2022/01/08 17:12:41;;;;;;;7.67;6.87;;;5.40;40.00;;;;;;10425883;28;20229;-71
2022/01/08 17:17:44;;;;;;;14.53;11.90;;;5.40;40.20;;;;;;10431960;28;20222;-71
2022/01/08 17:22:50;;;;;;;13.23;11.90;;;5.30;40.30;;;;;;10432043;28;20240;-71
2022/01/08 17:27:54;;;;;;;16.40;13.97;;;5.20;41.00;;;;;;10422727;28;20225;-71
2022/01/08 17:32:58;;;;;;;12.40;10.97;;;5.20;40.30;;;;;;10429785;28;20241;-71
2022/01/08 17:38:03;;;;;;;13.20;10.27;;;5.10;40.30;;;;;;10429841;28;20268;-70
2022/01/08 17:43:07;;;;;;;10.57;8.37;;;5.10;40.30;;;;;;10435408;28;20713;-71
2022/01/08 17:48:10;;;;;;;33.53;24.50;;;5.00;40.30;;;;;;10433428;28;20233;-71
2022/01/08 17:53:18;;;;;;;15.03;11.73;;;5.00;40.70;;;;;;10441404;28;20217;-71
2022/01/08 17:58:22;;;;;;;11.63;9.10;;;5.00;40.70;;;;;;10434142;28;20244;-70
2022/01/08 18:03:25;;;;;;;8.63;7.57;;;4.90;40.70;;;;;;10426779;28;20237;-71
2022/01/08 18:08:30;;;;;;;10.83;9.83;;;5.00;40.80;;;;;;10432790;28;20324;-71
2022/01/08 18:13:33;;;;;;;10.20;8.87;;;5.00;40.70;;;;;;10428348;28;20222;-74
2022/01/08 18:18:37;;;;;;;12.20;10.47;;;4.90;40.70;;;;;;10425049;28;20224;-70
2022/01/08 18:23:41;;;;;;;15.20;11.20;;;4.90;40.90;;;;;;10424545;28;20233;-70
2022/01/08 18:28:45;;;;;;;12.60;11.07;;;4.90;41.00;;;;;;10429897;28;20839;-70
2022/01/08 18:33:48;;;;;;;21.43;17.87;;;4.90;41.10;;;;;;10429993;28;20248;-70
2022/01/08 18:38:53;;;;;;;11.53;10.20;;;4.90;41.00;;;;;;10434903;28;20222;-70
2022/01/08 18:43:57;;;;;;;14.57;12.63;;;4.90;40.80;;;;;;10433153;28;20655;-70
2022/01/08 18:49:00;;;;;;;56.87;43.37;;;4.90;41.00;;;;;;10435002;28;20225;-70
2022/01/08 18:54:05;;;;;;;23.27;20.03;;;4.90;41.10;;;;;;10429055;28;20677;-70
2022/01/08 18:59:08;;;;;;;15.50;13.90;;;4.80;40.80;;;;;;10433181;28;20262;-70
2022/01/08 19:04:11;;;;;;;14.03;12.50;;;4.80;41.00;;;;;;10426522;28;20229;-70
2022/01/08 19:09:16;;;;;;;11.70;10.50;;;4.80;41.00;;;;;;10434909;28;20319;-70
2022/01/08 19:14:19;;;;;;;11.10;9.43;;;4.80;41.10;;;;;;10426878;28;20231;-70
2022/01/08 19:19:22;;;;;;;10.00;8.53;;;4.80;41.00;;;;;;10428082;28;20713;-70
2022/01/08 19:24:26;;;;;;;11.30;10.07;;;4.80;41.00;;;;;;10432612;28;20221;-70
2022/01/08 19:29:30;;;;;;;11.43;10.23;;;4.80;41.20;;;;;;10430891;28;20598;-70
2022/01/08 19:34:33;;;;;;;15.43;11.97;;;4.80;41.30;;;;;;10432179;28;20684;-70
2022/01/08 19:39:38;;;;;;;15.10;11.53;;;4.80;41.40;;;;;;10418207;28;20707;-70
2022/01/08 19:44:45;;;;;;;12.47;10.63;;;4.90;41.40;;;;;;10417522;28;20688;-70
2022/01/08 19:49:49;;;;;;;10.00;8.93;;;4.90;41.20;;;;;;10409445;28;20233;-70
2022/01/08 19:54:54;;;;;;;8.67;7.63;;;4.90;41.30;;;;;;10410961;28;20225;-70
2022/01/08 20:00:00;;;;;;;6.90;6.00;;;4.90;41.20;;;;;;10410919;28;20594;-70
2022/01/08 20:05:04;;;;;;;6.30;4.50;;;4.90;41.40;;;;;;10413645;28;20301;-70
2022/01/08 20:10:12;;;;;;;8.50;4.97;;;4.90;41.40;;;;;;10417099;28;20606;-70
2022/01/08 20:15:15;;;;;;;4.07;3.57;;;4.90;41.20;;;;;;10415282;28;20225;-70
2022/01/08 20:20:19;;;;;;;5.43;4.50;;;4.90;41.30;;;;;;10412488;28;20229;-70
2022/01/08 20:25:23;;;;;;;4.10;3.20;;;4.90;41.20;;;;;;10411186;28;20229;-70
2022/01/08 20:30:26;;;;;;;3.53;3.10;;;4.80;41.30;;;;;;10412716;28;20233;-70
2022/01/08 20:35:30;;;;;;;4.67;3.63;;;4.80;41.40;;;;;;10412849;28;20232;-70
2022/01/08 20:40:35;;;;;;;5.77;4.63;;;4.80;41.40;;;;;;10414603;28;20222;-70
2022/01/08 20:45:41;;;;;;;4.50;4.00;;;4.80;41.60;;;;;;10411775;28;20253;-70
2022/01/08 20:50:44;;;;;;;4.13;3.73;;;4.80;41.90;;;;;;10412177;28;20325;-69
2022/01/08 20:55:49;;;;;;;3.50;3.20;;;4.80;41.90;;;;;;10412342;28;20232;-69
2022/01/08 21:00:52;;;;;;;5.13;3.80;;;4.90;41.90;;;;;;10410435;28;20229;-70
2022/01/08 21:05:56;;;;;;;4.40;4.00;;;4.90;41.70;;;;;;10416398;28;20244;-70
2022/01/08 21:11:00;;;;;;;4.80;4.20;;;4.90;41.80;;;;;;10419604;28;20721;-70
2022/01/08 21:16:09;;;;;;;5.13;4.67;;;4.90;42.20;;;;;;10410491;28;20705;-70
2022/01/08 21:21:12;;;;;;;11.70;10.70;;;4.90;42.30;;;;;;10403786;28;20236;-70
2022/01/08 21:26:17;;;;;;;4.90;4.50;;;4.90;42.50;;;;;;10416136;28;20228;-69
2022/01/08 21:31:21;;;;;;;3.30;3.00;;;4.80;42.60;;;;;;10412047;28;20229;-68
2022/01/08 21:36:25;;;;;;;5.30;3.83;;;4.80;42.60;;;;;;10414163;28;20324;-68
2022/01/08 21:41:29;;;;;;;2.90;2.70;;;4.80;42.60;;;;;;10419007;28;20232;-68
2022/01/08 21:46:35;;;;;;;2.80;2.60;;;4.80;42.60;;;;;;10420542;28;20228;-68
2022/01/08 21:51:39;;;;;;;2.60;2.40;;;4.80;42.60;;;;;;10416296;28;20284;-68
2022/01/08 21:56:44;;;;;;;2.80;2.10;;;4.70;42.50;;;;;;10420512;28;20225;-68
2022/01/08 22:01:48;;;;;;;2.13;1.93;;;4.80;42.60;;;;;;10419106;28;20847;-68
2022/01/08 22:06:51;;;;;;;1.97;1.83;;;4.80;42.60;;;;;;10418344;28;20792;-68
2022/01/08 22:11:56;;;;;;;1.80;1.70;;;4.80;42.60;;;;;;10420129;28;20225;-68
2022/01/08 22:16:59;;;;;;;1.87;1.77;;;4.80;42.80;;;;;;10413861;28;20264;-68
2022/01/08 22:22:04;;;;;;;1.90;1.80;;;4.80;42.60;;;;;;10412423;28;20605;-68
2022/01/08 22:27:08;;;;;;;3.03;1.80;;;4.90;42.60;;;;;;10420085;28;20221;-67
2022/01/08 22:32:11;;;;;;;1.70;1.60;;;4.90;42.60;;;;;;10416709;28;20232;-68
2022/01/08 22:37:16;;;;;;;1.60;1.50;;;5.00;42.70;;;;;;10425451;28;20226;-67
2022/01/08 22:42:20;;;;;;;1.77;1.50;;;5.00;42.70;;;;;;10416383;28;20227;-68
2022/01/08 22:47:24;;;;;;;1.60;1.50;;;5.00;42.70;;;;;;10424038;28;20240;-67
2022/01/08 22:52:27;;;;;;;1.87;1.50;;;5.10;42.50;;;;;;10420771;28;20235;-67
2022/01/08 22:57:32;;;;;;;1.53;1.30;;;5.10;42.50;;;;;;10417944;28;20236;-67
2022/01/08 23:02:35;;;;;;;1.70;1.60;;;5.10;42.40;;;;;;10419538;28;20230;-67
2022/01/08 23:07:38;;;;;;;1.60;1.50;;;5.10;42.40;;;;;;10420243;28;20229;-67
2022/01/08 23:12:43;;;;;;;1.60;1.50;;;5.20;42.20;;;;;;10427107;28;20232;-68
2022/01/08 23:17:46;;;;;;;1.80;1.30;;;5.20;42.10;;;;;;10421225;28;20232;-68
2022/01/08 23:22:49;;;;;;;1.57;1.47;;;5.20;42.10;;;;;;10425765;28;20283;-67
2022/01/08 23:27:54;;;;;;;1.47;1.37;;;5.20;42.00;;;;;;10418808;28;20627;-67
2022/01/08 23:32:57;;;;;;;1.60;1.50;;;5.20;41.90;;;;;;10421438;28;20248;-67
2022/01/08 23:38:01;;;;;;;1.73;1.50;;;5.20;42.10;;;;;;10422692;28;20224;-68
2022/01/08 23:43:06;;;;;;;1.90;1.70;;;5.20;41.90;;;;;;10419842;28;20217;-67
2022/01/08 23:48:09;;;;;;;1.60;1.50;;;5.20;41.70;;;;;;10422541;28;20239;-67
2022/01/08 23:53:12;;;;;;;2.07;1.80;;;5.20;41.80;;;;;;10426330;28;20332;-67
2022/01/08 23:58:17;;;;;;;1.80;1.70;;;5.30;41.90;;;;;;10418724;28;21255;-67
